sensor_id;sensor_type;location;lat;lon;timestamp;P1;durP1;ratioP1;P2;durP2;ratioP2
24044;SDS011;26257;49.442;8.422;2023-05-10T00:01:57;4.53;;;2.30;;
24044;SDS011;26257;49.442;8.422;2023-05-10T00:04:22;6.32;;;2.65;;
24044;SDS011;26257;49.442;8.422;2023-05-10T00:06:52;4.32;;;2.42;;
24044;SDS011;26257;49.442;8.422;2023-05-10T00:09:18;8.48;;;2.90;;
24044;SDS011;26257;49.442;8.422;2023-05-10T00:11:43;4.15;;;2.40;;
24044;SDS011;26257;49.442;8.422;2023-05-10T00:14:08;4.80;;;2.28;;
24044;SDS011;26257;49.442;8.422;2023-05-10T00:16:34;5.18;;;2.30;;
24044;SDS011;26257;49.442;8.422;2023-05-10T00:18:59;3.70;;;2.20;;
24044;SDS011;26257;49.442;8.422;2023-05-10T00:21:25;3.92;;;2.15;;
24044;SDS011;26257;49.442;8.422;2023-05-10T00:23:50;4.57;;;2.83;;
24044;SDS011;26257;49.442;8.422;2023-05-10T00:26:16;5.85;;;2.38;;
24044;SDS011;26257;49.442;8.422;2023-05-10T00:28:41;4.60;;;2.40;;
24044;SDS011;26257;49.442;8.422;2023-05-10T00:31:07;3.90;;;2.20;;
24044;SDS011;26257;49.442;8.422;2023-05-10T00:33:32;4.55;;;2.70;;
24044;SDS011;26257;49.442;8.422;2023-05-10T00:35:58;4.18;;;2.25;;
24044;SDS011;26257;49.442;8.422;2023-05-10T00:38:23;4.97;;;2.42;;
24044;SDS011;26257;49.442;8.422;2023-05-10T00:40:48;5.00;;;2.78;;
24044;SDS011;26257;49.442;8.422;2023-05-10T00:43:14;5.18;;;2.72;;
24044;SDS011;26257;49.442;8.422;2023-05-10T00:45:39;4.68;;;3.10;;
24044;SDS011;26257;49.442;8.422;2023-05-10T00:48:05;3.70;;;2.60;;
24044;SDS011;26257;49.442;8.422;2023-05-10T00:50:31;4.40;;;3.10;;
24044;SDS011;26257;49.442;8.422;2023-05-10T00:52:58;4.82;;;2.90;;
24044;SDS011;26257;49.442;8.422;2023-05-10T00:55:25;5.22;;;2.67;;
24044;SDS011;26257;49.442;8.422;2023-05-10T00:57:50;4.40;;;3.05;;
24044;SDS011;26257;49.442;8.422;2023-05-10T01:00:17;11.90;;;3.40;;
24044;SDS011;26257;49.442;8.422;2023-05-10T01:02:44;4.75;;;2.95;;
24044;SDS011;26257;49.442;8.422;2023-05-10T01:05:11;6.60;;;3.15;;
24044;SDS011;26257;49.442;8.422;2023-05-10T01:07:36;5.85;;;3.08;;
24044;SDS011;26257;49.442;8.422;2023-05-10T01:10:02;6.25;;;2.50;;
24044;SDS011;26257;49.442;8.422;2023-05-10T01:12:28;9.77;;;3.40;;
24044;SDS011;26257;49.442;8.422;2023-05-10T01:14:53;8.52;;;2.80;;
24044;SDS011;26257;49.442;8.422;2023-05-10T01:17:20;4.78;;;2.38;;
24044;SDS011;26257;49.442;8.422;2023-05-10T01:19:46;7.07;;;3.08;;
24044;SDS011;26257;49.442;8.422;2023-05-10T01:25:26;5.00;;;2.70;;
24044;SDS011;26257;49.442;8.422;2023-05-10T01:33:52;4.95;;;2.50;;
24044;SDS011;26257;49.442;8.422;2023-05-10T01:39:06;3.90;;;2.30;;
24044;SDS011;26257;49.442;8.422;2023-05-10T01:42:00;4.40;;;2.30;;
24044;SDS011;26257;49.442;8.422;2023-05-10T01:44:54;4.22;;;2.50;;
24044;SDS011;26257;49.442;8.422;2023-05-10T01:49:55;4.88;;;2.50;;
24044;SDS011;26257;49.442;8.422;2023-05-10T01:52:44;4.43;;;2.25;;
24044;SDS011;26257;49.442;8.422;2023-05-10T01:55:15;5.35;;;2.80;;
24044;SDS011;26257;49.442;8.422;2023-05-10T01:57:43;4.97;;;2.88;;
24044;SDS011;26257;49.442;8.422;2023-05-10T02:00:13;5.93;;;2.63;;
24044;SDS011;26257;49.442;8.422;2023-05-10T02:02:40;3.97;;;2.45;;
24044;SDS011;26257;49.442;8.422;2023-05-10T02:05:09;4.75;;;2.70;;
24044;SDS011;26257;49.442;8.422;2023-05-10T02:07:37;4.75;;;2.60;;
24044;SDS011;26257;49.442;8.422;2023-05-10T02:10:04;4.68;;;2.67;;
24044;SDS011;26257;49.442;8.422;2023-05-10T02:12:35;5.22;;;2.40;;
24044;SDS011;26257;49.442;8.422;2023-05-10T02:15:02;5.57;;;2.30;;
24044;SDS011;26257;49.442;8.422;2023-05-10T02:17:30;5.22;;;2.53;;
24044;SDS011;26257;49.442;8.422;2023-05-10T02:19:57;4.22;;;2.60;;
24044;SDS011;26257;49.442;8.422;2023-05-10T02:22:24;4.63;;;2.33;;
24044;SDS011;26257;49.442;8.422;2023-05-10T02:24:51;3.60;;;1.98;;
24044;SDS011;26257;49.442;8.422;2023-05-10T02:27:19;3.97;;;2.20;;
24044;SDS011;26257;49.442;8.422;2023-05-10T02:29:45;4.70;;;2.35;;
24044;SDS011;26257;49.442;8.422;2023-05-10T02:32:12;4.65;;;2.15;;
24044;SDS011;26257;49.442;8.422;2023-05-10T02:34:39;5.88;;;2.53;;
24044;SDS011;26257;49.442;8.422;2023-05-10T02:37:06;4.30;;;2.90;;
24044;SDS011;26257;49.442;8.422;2023-05-10T02:39:32;6.30;;;2.60;;
24044;SDS011;26257;49.442;8.422;2023-05-10T02:41:58;3.53;;;2.35;;
24044;SDS011;26257;49.442;8.422;2023-05-10T02:44:24;5.13;;;2.38;;
24044;SDS011;26257;49.442;8.422;2023-05-10T02:46:53;5.22;;;2.80;;
24044;SDS011;26257;49.442;8.422;2023-05-10T02:49:20;4.55;;;2.80;;
24044;SDS011;26257;49.442;8.422;2023-05-10T02:51:47;5.10;;;2.22;;
24044;SDS011;26257;49.442;8.422;2023-05-10T02:54:20;5.97;;;3.38;;
24044;SDS011;26257;49.442;8.422;2023-05-10T02:56:50;4.88;;;3.00;;
24044;SDS011;26257;49.442;8.422;2023-05-10T02:59:19;5.50;;;3.42;;
24044;SDS011;26257;49.442;8.422;2023-05-10T03:01:44;5.75;;;3.28;;
24044;SDS011;26257;49.442;8.422;2023-05-10T03:04:10;5.07;;;2.80;;
24044;SDS011;26257;49.442;8.422;2023-05-10T03:06:35;5.68;;;3.22;;
24044;SDS011;26257;49.442;8.422;2023-05-10T03:09:01;6.72;;;3.30;;
24044;SDS011;26257;49.442;8.422;2023-05-10T03:11:47;5.72;;;3.20;;
24044;SDS011;26257;49.442;8.422;2023-05-10T03:17:04;4.72;;;3.05;;
24044;SDS011;26257;49.442;8.422;2023-05-10T03:19:39;5.85;;;2.95;;
24044;SDS011;26257;49.442;8.422;2023-05-10T03:22:12;6.03;;;3.00;;
24044;SDS011;26257;49.442;8.422;2023-05-10T03:24:43;3.72;;;2.40;;
24044;SDS011;26257;49.442;8.422;2023-05-10T03:27:11;10.15;;;3.20;;
24044;SDS011;26257;49.442;8.422;2023-05-10T03:29:39;4.70;;;3.63;;
24044;SDS011;26257;49.442;8.422;2023-05-10T03:32:05;5.50;;;3.03;;
24044;SDS011;26257;49.442;8.422;2023-05-10T03:34:30;5.60;;;3.15;;
24044;SDS011;26257;49.442;8.422;2023-05-10T03:36:56;5.35;;;2.92;;
24044;SDS011;26257;49.442;8.422;2023-05-10T03:39:22;8.23;;;3.72;;
24044;SDS011;26257;49.442;8.422;2023-05-10T03:41:47;5.07;;;3.28;;
24044;SDS011;26257;49.442;8.422;2023-05-10T03:44:12;7.63;;;3.70;;
24044;SDS011;26257;49.442;8.422;2023-05-10T03:46:38;6.97;;;4.22;;
24044;SDS011;26257;49.442;8.422;2023-05-10T03:49:03;9.50;;;3.88;;
24044;SDS011;26257;49.442;8.422;2023-05-10T03:51:29;6.93;;;3.90;;
24044;SDS011;26257;49.442;8.422;2023-05-10T03:53:56;8.93;;;3.90;;
24044;SDS011;26257;49.442;8.422;2023-05-10T03:56:21;7.55;;;3.45;;
24044;SDS011;26257;49.442;8.422;2023-05-10T03:58:47;5.80;;;3.47;;
24044;SDS011;26257;49.442;8.422;2023-05-10T04:01:12;6.15;;;4.05;;
24044;SDS011;26257;49.442;8.422;2023-05-10T04:03:38;8.88;;;4.38;;
24044;SDS011;26257;49.442;8.422;2023-05-10T04:06:03;6.85;;;4.15;;
24044;SDS011;26257;49.442;8.422;2023-05-10T04:08:29;8.35;;;4.13;;
24044;SDS011;26257;49.442;8.422;2023-05-10T04:11:04;7.30;;;3.90;;
24044;SDS011;26257;49.442;8.422;2023-05-10T04:13:33;8.32;;;4.25;;
24044;SDS011;26257;49.442;8.422;2023-05-10T04:15:59;5.38;;;4.07;;
24044;SDS011;26257;49.442;8.422;2023-05-10T04:18:25;11.50;;;4.50;;
24044;SDS011;26257;49.442;8.422;2023-05-10T04:20:50;9.63;;;5.00;;
24044;SDS011;26257;49.442;8.422;2023-05-10T04:23:16;8.40;;;5.13;;
24044;SDS011;26257;49.442;8.422;2023-05-10T04:25:41;8.93;;;4.18;;
24044;SDS011;26257;49.442;8.422;2023-05-10T04:28:07;7.03;;;4.05;;
24044;SDS011;26257;49.442;8.422;2023-05-10T04:30:33;9.82;;;5.80;;
24044;SDS011;26257;49.442;8.422;2023-05-10T04:32:58;5.72;;;3.67;;
24044;SDS011;26257;49.442;8.422;2023-05-10T04:35:24;7.38;;;3.72;;
24044;SDS011;26257;49.442;8.422;2023-05-10T04:37:49;8.43;;;4.40;;
24044;SDS011;26257;49.442;8.422;2023-05-10T04:40:15;8.52;;;4.80;;
24044;SDS011;26257;49.442;8.422;2023-05-10T04:42:40;9.55;;;5.10;;
24044;SDS011;26257;49.442;8.422;2023-05-10T04:45:08;5.43;;;3.78;;
24044;SDS011;26257;49.442;8.422;2023-05-10T04:47:35;8.13;;;3.45;;
24044;SDS011;26257;49.442;8.422;2023-05-10T04:50:02;5.18;;;3.50;;
24044;SDS011;26257;49.442;8.422;2023-05-10T04:52:28;6.97;;;3.92;;
24044;SDS011;26257;49.442;8.422;2023-05-10T04:54:53;6.50;;;4.00;;
24044;SDS011;26257;49.442;8.422;2023-05-10T04:57:19;8.10;;;3.33;;
24044;SDS011;26257;49.442;8.422;2023-05-10T04:59:44;7.00;;;4.43;;
24044;SDS011;26257;49.442;8.422;2023-05-10T05:02:09;8.70;;;4.10;;
24044;SDS011;26257;49.442;8.422;2023-05-10T05:04:35;8.75;;;4.18;;
24044;SDS011;26257;49.442;8.422;2023-05-10T05:07:00;5.60;;;3.60;;
24044;SDS011;26257;49.442;8.422;2023-05-10T05:09:26;7.15;;;4.10;;
24044;SDS011;26257;49.442;8.422;2023-05-10T05:11:51;8.55;;;5.50;;
24044;SDS011;26257;49.442;8.422;2023-05-10T05:14:16;6.90;;;4.30;;
24044;SDS011;26257;49.442;8.422;2023-05-10T05:16:42;10.52;;;4.78;;
24044;SDS011;26257;49.442;8.422;2023-05-10T05:19:07;6.28;;;4.13;;
24044;SDS011;26257;49.442;8.422;2023-05-10T05:21:33;6.55;;;4.25;;
24044;SDS011;26257;49.442;8.422;2023-05-10T05:23:58;5.70;;;3.90;;
24044;SDS011;26257;49.442;8.422;2023-05-10T05:26:23;9.45;;;4.22;;
24044;SDS011;26257;49.442;8.422;2023-05-10T05:28:49;8.00;;;4.80;;
24044;SDS011;26257;49.442;8.422;2023-05-10T05:31:17;10.57;;;5.10;;
24044;SDS011;26257;49.442;8.422;2023-05-10T05:33:44;9.98;;;5.03;;
24044;SDS011;26257;49.442;8.422;2023-05-10T05:36:09;49.88;;;34.28;;
24044;SDS011;26257;49.442;8.422;2023-05-10T05:38:35;18.38;;;11.00;;
24044;SDS011;26257;49.442;8.422;2023-05-10T05:41:00;20.20;;;11.35;;
24044;SDS011;26257;49.442;8.422;2023-05-10T05:43:26;10.63;;;5.93;;
24044;SDS011;26257;49.442;8.422;2023-05-10T05:45:52;14.00;;;6.05;;
24044;SDS011;26257;49.442;8.422;2023-05-10T05:48:18;9.32;;;5.75;;
24044;SDS011;26257;49.442;8.422;2023-05-10T05:50:44;6.38;;;4.57;;
24044;SDS011;26257;49.442;8.422;2023-05-10T05:53:10;9.45;;;5.70;;
24044;SDS011;26257;49.442;8.422;2023-05-10T05:55:35;8.38;;;6.28;;
24044;SDS011;26257;49.442;8.422;2023-05-10T05:58:01;10.07;;;4.78;;
24044;SDS011;26257;49.442;8.422;2023-05-10T06:00:26;12.05;;;5.82;;
24044;SDS011;26257;49.442;8.422;2023-05-10T06:02:52;10.60;;;5.63;;
24044;SDS011;26257;49.442;8.422;2023-05-10T06:05:17;12.80;;;7.85;;
24044;SDS011;26257;49.442;8.422;2023-05-10T06:07:43;7.93;;;5.28;;
24044;SDS011;26257;49.442;8.422;2023-05-10T06:10:08;8.77;;;4.97;;
24044;SDS011;26257;49.442;8.422;2023-05-10T06:12:34;8.23;;;5.22;;
24044;SDS011;26257;49.442;8.422;2023-05-10T06:15:00;6.47;;;4.75;;
24044;SDS011;26257;49.442;8.422;2023-05-10T06:17:26;6.47;;;4.70;;
24044;SDS011;26257;49.442;8.422;2023-05-10T06:19:52;7.93;;;5.25;;
24044;SDS011;26257;49.442;8.422;2023-05-10T06:22:18;6.32;;;4.68;;
24044;SDS011;26257;49.442;8.422;2023-05-10T06:24:43;9.35;;;4.95;;
24044;SDS011;26257;49.442;8.422;2023-05-10T06:27:09;8.65;;;5.13;;
24044;SDS011;26257;49.442;8.422;2023-05-10T06:29:35;11.15;;;5.35;;
24044;SDS011;26257;49.442;8.422;2023-05-10T06:32:00;8.07;;;5.50;;
24044;SDS011;26257;49.442;8.422;2023-05-10T06:34:26;7.68;;;5.65;;
24044;SDS011;26257;49.442;8.422;2023-05-10T06:36:51;9.65;;;4.90;;
24044;SDS011;26257;49.442;8.422;2023-05-10T06:39:17;4.90;;;3.55;;
24044;SDS011;26257;49.442;8.422;2023-05-10T06:41:42;8.63;;;4.70;;
24044;SDS011;26257;49.442;8.422;2023-05-10T06:44:08;7.53;;;4.45;;
24044;SDS011;26257;49.442;8.422;2023-05-10T06:46:34;4.90;;;3.25;;
24044;SDS011;26257;49.442;8.422;2023-05-10T06:49:00;5.60;;;3.47;;
24044;SDS011;26257;49.442;8.422;2023-05-10T06:51:25;4.97;;;3.25;;
24044;SDS011;26257;49.442;8.422;2023-05-10T06:53:51;6.18;;;3.83;;
24044;SDS011;26257;49.442;8.422;2023-05-10T06:56:16;6.43;;;4.05;;
24044;SDS011;26257;49.442;8.422;2023-05-10T06:58:42;5.75;;;3.92;;
24044;SDS011;26257;49.442;8.422;2023-05-10T07:01:07;5.13;;;3.40;;
24044;SDS011;26257;49.442;8.422;2023-05-10T07:03:33;6.20;;;4.32;;
24044;SDS011;26257;49.442;8.422;2023-05-10T07:06:02;7.78;;;4.13;;
24044;SDS011;26257;49.442;8.422;2023-05-10T07:08:31;5.68;;;3.38;;
24044;SDS011;26257;49.442;8.422;2023-05-10T07:11:04;3.92;;;2.75;;
24044;SDS011;26257;49.442;8.422;2023-05-10T07:13:32;3.72;;;2.60;;
24044;SDS011;26257;49.442;8.422;2023-05-10T07:15:58;5.00;;;2.78;;
24044;SDS011;26257;49.442;8.422;2023-05-10T07:18:24;5.28;;;2.50;;
24044;SDS011;26257;49.442;8.422;2023-05-10T07:20:50;4.28;;;2.75;;
24044;SDS011;26257;49.442;8.422;2023-05-10T07:23:15;6.88;;;3.20;;
24044;SDS011;26257;49.442;8.422;2023-05-10T07:25:44;6.47;;;2.85;;
24044;SDS011;26257;49.442;8.422;2023-05-10T07:28:10;5.82;;;2.90;;
24044;SDS011;26257;49.442;8.422;2023-05-10T07:30:36;5.15;;;2.63;;
24044;SDS011;26257;49.442;8.422;2023-05-10T07:33:01;6.07;;;3.00;;
24044;SDS011;26257;49.442;8.422;2023-05-10T07:35:27;4.70;;;2.50;;
24044;SDS011;26257;49.442;8.422;2023-05-10T07:37:52;7.22;;;2.80;;
24044;SDS011;26257;49.442;8.422;2023-05-10T07:40:18;7.22;;;3.25;;
24044;SDS011;26257;49.442;8.422;2023-05-10T07:42:43;4.07;;;2.85;;
24044;SDS011;26257;49.442;8.422;2023-05-10T07:45:09;7.93;;;2.95;;
24044;SDS011;26257;49.442;8.422;2023-05-10T07:47:34;3.92;;;2.72;;
24044;SDS011;26257;49.442;8.422;2023-05-10T07:50:00;6.32;;;2.95;;
24044;SDS011;26257;49.442;8.422;2023-05-10T07:52:26;4.95;;;2.80;;
24044;SDS011;26257;49.442;8.422;2023-05-10T07:54:51;4.47;;;3.05;;
24044;SDS011;26257;49.442;8.422;2023-05-10T07:57:17;5.15;;;2.20;;
24044;SDS011;26257;49.442;8.422;2023-05-10T07:59:43;4.07;;;1.70;;
24044;SDS011;26257;49.442;8.422;2023-05-10T08:02:09;2.95;;;1.42;;
24044;SDS011;26257;49.442;8.422;2023-05-10T08:04:35;3.25;;;1.70;;
24044;SDS011;26257;49.442;8.422;2023-05-10T08:07:00;4.82;;;1.80;;
24044;SDS011;26257;49.442;8.422;2023-05-10T08:09:25;3.60;;;1.70;;
24044;SDS011;26257;49.442;8.422;2023-05-10T08:11:51;3.47;;;1.85;;
24044;SDS011;26257;49.442;8.422;2023-05-10T08:14:16;3.40;;;2.00;;
24044;SDS011;26257;49.442;8.422;2023-05-10T08:16:42;4.30;;;2.08;;
24044;SDS011;26257;49.442;8.422;2023-05-10T08:19:07;4.72;;;1.55;;
24044;SDS011;26257;49.442;8.422;2023-05-10T08:21:33;3.30;;;1.70;;
24044;SDS011;26257;49.442;8.422;2023-05-10T08:23:58;2.70;;;1.30;;
24044;SDS011;26257;49.442;8.422;2023-05-10T08:26:24;4.97;;;1.30;;
24044;SDS011;26257;49.442;8.422;2023-05-10T08:28:49;3.42;;;1.20;;
24044;SDS011;26257;49.442;8.422;2023-05-10T08:31:14;2.60;;;1.15;;
24044;SDS011;26257;49.442;8.422;2023-05-10T08:33:40;3.80;;;1.10;;
24044;SDS011;26257;49.442;8.422;2023-05-10T09:04:31;4.95;;;1.70;;
24044;SDS011;26257;49.442;8.422;2023-05-10T09:06:56;4.97;;;1.60;;
24044;SDS011;26257;49.442;8.422;2023-05-10T09:09:22;4.68;;;1.40;;
24044;SDS011;26257;49.442;8.422;2023-05-10T09:11:50;2.92;;;1.45;;
24044;SDS011;26257;49.442;8.422;2023-05-10T09:14:17;4.60;;;1.75;;
24044;SDS011;26257;49.442;8.422;2023-05-10T09:16:43;2.75;;;1.50;;
24044;SDS011;26257;49.442;8.422;2023-05-10T09:19:09;4.55;;;1.70;;
24044;SDS011;26257;49.442;8.422;2023-05-10T09:21:35;5.25;;;1.83;;
24044;SDS011;26257;49.442;8.422;2023-05-10T09:24:06;6.22;;;1.70;;
24044;SDS011;26257;49.442;8.422;2023-05-10T09:26:33;2.63;;;1.45;;
24044;SDS011;26257;49.442;8.422;2023-05-10T09:29:01;4.50;;;1.20;;
24044;SDS011;26257;49.442;8.422;2023-05-10T09:32:10;4.60;;;1.00;;
24044;SDS011;26257;49.442;8.422;2023-05-10T09:34:20;5.82;;;1.10;;
24044;SDS011;26257;49.442;8.422;2023-05-10T09:36:54;1.90;;;0.73;;
24044;SDS011;26257;49.442;8.422;2023-05-10T09:39:35;2.35;;;1.30;;
24044;SDS011;26257;49.442;8.422;2023-05-10T09:42:02;4.13;;;1.25;;
24044;SDS011;26257;49.442;8.422;2023-05-10T09:44:29;1.45;;;0.80;;
24044;SDS011;26257;49.442;8.422;2023-05-10T09:46:55;2.85;;;1.20;;
24044;SDS011;26257;49.442;8.422;2023-05-10T09:49:21;2.65;;;1.00;;
24044;SDS011;26257;49.442;8.422;2023-05-10T09:51:47;3.67;;;1.15;;
24044;SDS011;26257;49.442;8.422;2023-05-10T09:54:23;3.38;;;1.20;;
24044;SDS011;26257;49.442;8.422;2023-05-10T09:56:49;2.40;;;1.00;;
24044;SDS011;26257;49.442;8.422;2023-05-10T09:59:15;2.85;;;1.15;;
24044;SDS011;26257;49.442;8.422;2023-05-10T10:01:40;4.72;;;0.93;;
24044;SDS011;26257;49.442;8.422;2023-05-10T10:04:07;1.38;;;0.75;;
24044;SDS011;26257;49.442;8.422;2023-05-10T10:06:37;1.92;;;0.65;;
24044;SDS011;26257;49.442;8.422;2023-05-10T10:09:07;2.95;;;1.05;;
24044;SDS011;26257;49.442;8.422;2023-05-10T10:11:34;2.58;;;1.02;;
24044;SDS011;26257;49.442;8.422;2023-05-10T10:14:01;5.25;;;0.95;;
24044;SDS011;26257;49.442;8.422;2023-05-10T10:16:27;2.53;;;1.17;;
24044;SDS011;26257;49.442;8.422;2023-05-10T10:18:54;2.67;;;1.05;;
24044;SDS011;26257;49.442;8.422;2023-05-10T10:21:20;6.68;;;1.00;;
24044;SDS011;26257;49.442;8.422;2023-05-10T10:23:46;3.00;;;1.20;;
24044;SDS011;26257;49.442;8.422;2023-05-10T10:26:12;5.07;;;1.35;;
24044;SDS011;26257;49.442;8.422;2023-05-10T10:31:13;4.63;;;1.40;;
24044;SDS011;26257;49.442;8.422;2023-05-10T10:33:55;2.97;;;1.30;;
24044;SDS011;26257;49.442;8.422;2023-05-10T10:36:24;7.90;;;1.20;;
24044;SDS011;26257;49.442;8.422;2023-05-10T10:41:34;3.47;;;1.23;;
24044;SDS011;26257;49.442;8.422;2023-05-10T10:47:09;5.13;;;1.35;;
24044;SDS011;26257;49.442;8.422;2023-05-10T10:55:05;2.70;;;0.70;;
24044;SDS011;26257;49.442;8.422;2023-05-10T11:02:49;3.63;;;0.90;;
24044;SDS011;26257;49.442;8.422;2023-05-10T11:08:06;3.90;;;1.00;;
24044;SDS011;26257;49.442;8.422;2023-05-10T11:10:36;2.65;;;0.80;;
24044;SDS011;26257;49.442;8.422;2023-05-10T11:13:05;2.13;;;0.85;;
24044;SDS011;26257;49.442;8.422;2023-05-10T11:15:34;5.07;;;0.70;;
24044;SDS011;26257;49.442;8.422;2023-05-10T11:18:23;3.63;;;0.88;;
24044;SDS011;26257;49.442;8.422;2023-05-10T11:23:29;3.30;;;0.80;;
24044;SDS011;26257;49.442;8.422;2023-05-10T11:25:56;4.18;;;0.85;;
24044;SDS011;26257;49.442;8.422;2023-05-10T11:28:21;3.28;;;1.02;;
24044;SDS011;26257;49.442;8.422;2023-05-10T11:30:47;1.58;;;0.60;;
24044;SDS011;26257;49.442;8.422;2023-05-10T11:33:16;2.47;;;0.68;;
24044;SDS011;26257;49.442;8.422;2023-05-10T11:35:43;2.63;;;1.00;;
24044;SDS011;26257;49.442;8.422;2023-05-10T11:38:09;2.33;;;0.80;;
24044;SDS011;26257;49.442;8.422;2023-05-10T11:40:36;4.40;;;0.80;;
24044;SDS011;26257;49.442;8.422;2023-05-10T11:43:02;3.70;;;1.00;;
24044;SDS011;26257;49.442;8.422;2023-05-10T11:45:29;3.33;;;0.93;;
24044;SDS011;26257;49.442;8.422;2023-05-10T11:47:56;3.33;;;0.98;;
24044;SDS011;26257;49.442;8.422;2023-05-10T11:50:22;2.90;;;0.80;;
24044;SDS011;26257;49.442;8.422;2023-05-10T11:52:55;4.07;;;1.05;;
24044;SDS011;26257;49.442;8.422;2023-05-10T11:55:21;3.35;;;1.10;;
24044;SDS011;26257;49.442;8.422;2023-05-10T11:57:47;4.20;;;1.42;;
24044;SDS011;26257;49.442;8.422;2023-05-10T12:00:16;3.42;;;1.30;;
24044;SDS011;26257;49.442;8.422;2023-05-10T12:02:42;2.40;;;1.00;;
24044;SDS011;26257;49.442;8.422;2023-05-10T12:05:08;2.22;;;0.80;;
24044;SDS011;26257;49.442;8.422;2023-05-10T12:07:34;2.58;;;1.20;;
24044;SDS011;26257;49.442;8.422;2023-05-10T12:12:40;2.45;;;0.75;;
24044;SDS011;26257;49.442;8.422;2023-05-10T12:17:45;7.88;;;1.38;;
24044;SDS011;26257;49.442;8.422;2023-05-10T12:20:21;4.60;;;1.42;;
24044;SDS011;26257;49.442;8.422;2023-05-10T12:22:54;5.05;;;1.13;;
24044;SDS011;26257;49.442;8.422;2023-05-10T12:25:22;2.50;;;0.90;;
24044;SDS011;26257;49.442;8.422;2023-05-10T12:27:52;3.40;;;1.17;;
24044;SDS011;26257;49.442;8.422;2023-05-10T12:30:24;4.20;;;1.02;;
24044;SDS011;26257;49.442;8.422;2023-05-10T12:32:53;4.68;;;1.17;;
24044;SDS011;26257;49.442;8.422;2023-05-10T12:35:24;4.90;;;1.13;;
24044;SDS011;26257;49.442;8.422;2023-05-10T12:37:53;3.03;;;1.20;;
24044;SDS011;26257;49.442;8.422;2023-05-10T12:40:18;7.18;;;1.40;;
24044;SDS011;26257;49.442;8.422;2023-05-10T12:42:43;4.60;;;1.10;;
24044;SDS011;26257;49.442;8.422;2023-05-10T12:45:10;7.53;;;1.60;;
24044;SDS011;26257;49.442;8.422;2023-05-10T12:47:36;3.92;;;1.08;;
24044;SDS011;26257;49.442;8.422;2023-05-10T12:50:04;2.67;;;1.30;;
24044;SDS011;26257;49.442;8.422;2023-05-10T12:52:30;4.05;;;1.40;;
24044;SDS011;26257;49.442;8.422;2023-05-10T12:54:59;5.13;;;1.13;;
24044;SDS011;26257;49.442;8.422;2023-05-10T12:57:25;3.28;;;1.10;;
24044;SDS011;26257;49.442;8.422;2023-05-10T12:59:51;4.35;;;1.10;;
24044;SDS011;26257;49.442;8.422;2023-05-10T13:02:17;3.95;;;1.00;;
24044;SDS011;26257;49.442;8.422;2023-05-10T13:04:46;3.08;;;1.20;;
24044;SDS011;26257;49.442;8.422;2023-05-10T13:07:13;3.13;;;1.00;;
24044;SDS011;26257;49.442;8.422;2023-05-10T13:09:39;2.75;;;0.82;;
24044;SDS011;26257;49.442;8.422;2023-05-10T13:12:04;8.50;;;1.05;;
24044;SDS011;26257;49.442;8.422;2023-05-10T13:14:30;6.78;;;1.00;;
24044;SDS011;26257;49.442;8.422;2023-05-10T13:16:56;4.13;;;1.15;;
24044;SDS011;26257;49.442;8.422;2023-05-10T13:19:21;2.20;;;0.93;;
24044;SDS011;26257;49.442;8.422;2023-05-10T13:21:47;3.20;;;0.70;;
24044;SDS011;26257;49.442;8.422;2023-05-10T13:24:12;1.48;;;0.73;;
24044;SDS011;26257;49.442;8.422;2023-05-10T13:26:42;3.60;;;0.88;;
24044;SDS011;26257;49.442;8.422;2023-05-10T13:29:08;3.35;;;0.88;;
24044;SDS011;26257;49.442;8.422;2023-05-10T13:31:33;3.20;;;0.82;;
24044;SDS011;26257;49.442;8.422;2023-05-10T13:34:00;6.22;;;1.08;;
24044;SDS011;26257;49.442;8.422;2023-05-10T13:36:25;3.03;;;0.98;;
24044;SDS011;26257;49.442;8.422;2023-05-10T13:38:51;4.10;;;1.23;;
24044;SDS011;26257;49.442;8.422;2023-05-10T13:41:16;2.83;;;0.90;;
24044;SDS011;26257;49.442;8.422;2023-05-10T13:43:42;5.30;;;0.70;;
24044;SDS011;26257;49.442;8.422;2023-05-10T13:46:08;5.75;;;0.80;;
24044;SDS011;26257;49.442;8.422;2023-05-10T13:48:33;3.90;;;0.85;;
24044;SDS011;26257;49.442;8.422;2023-05-10T13:50:59;3.95;;;1.10;;
24044;SDS011;26257;49.442;8.422;2023-05-10T13:53:24;2.38;;;0.70;;
24044;SDS011;26257;49.442;8.422;2023-05-10T13:55:50;4.63;;;0.98;;
24044;SDS011;26257;49.442;8.422;2023-05-10T13:58:15;1.65;;;0.80;;
24044;SDS011;26257;49.442;8.422;2023-05-10T14:00:40;3.17;;;0.60;;
24044;SDS011;26257;49.442;8.422;2023-05-10T14:03:06;1.60;;;0.60;;
24044;SDS011;26257;49.442;8.422;2023-05-10T14:05:34;4.15;;;0.70;;
24044;SDS011;26257;49.442;8.422;2023-05-10T14:07:59;2.65;;;0.75;;
24044;SDS011;26257;49.442;8.422;2023-05-10T14:10:24;2.33;;;0.80;;
24044;SDS011;26257;49.442;8.422;2023-05-10T14:12:50;3.05;;;0.70;;
24044;SDS011;26257;49.442;8.422;2023-05-10T14:15:15;1.75;;;0.60;;
24044;SDS011;26257;49.442;8.422;2023-05-10T14:17:41;1.75;;;0.68;;
24044;SDS011;26257;49.442;8.422;2023-05-10T14:20:08;1.30;;;0.43;;
24044;SDS011;26257;49.442;8.422;2023-05-10T14:22:34;5.95;;;0.73;;
24044;SDS011;26257;49.442;8.422;2023-05-10T14:24:59;2.40;;;0.40;;
24044;SDS011;26257;49.442;8.422;2023-05-10T14:27:25;3.15;;;0.60;;
24044;SDS011;26257;49.442;8.422;2023-05-10T14:29:50;3.13;;;0.80;;
24044;SDS011;26257;49.442;8.422;2023-05-10T14:32:16;1.80;;;0.45;;
24044;SDS011;26257;49.442;8.422;2023-05-10T14:34:41;2.38;;;0.60;;
24044;SDS011;26257;49.442;8.422;2023-05-10T14:37:07;2.92;;;0.70;;
24044;SDS011;26257;49.442;8.422;2023-05-10T14:39:35;2.60;;;0.52;;
24044;SDS011;26257;49.442;8.422;2023-05-10T14:42:00;2.03;;;0.63;;
24044;SDS011;26257;49.442;8.422;2023-05-10T14:44:26;2.03;;;0.70;;
24044;SDS011;26257;49.442;8.422;2023-05-10T14:46:51;2.60;;;0.77;;
24044;SDS011;26257;49.442;8.422;2023-05-10T14:49:17;1.30;;;0.52;;
24044;SDS011;26257;49.442;8.422;2023-05-10T14:51:43;2.20;;;0.80;;
24044;SDS011;26257;49.442;8.422;2023-05-10T14:54:09;3.22;;;0.73;;
24044;SDS011;26257;49.442;8.422;2023-05-10T14:56:35;6.00;;;1.02;;
24044;SDS011;26257;49.442;8.422;2023-05-10T14:59:02;3.58;;;0.85;;
24044;SDS011;26257;49.442;8.422;2023-05-10T15:01:28;3.53;;;0.75;;
24044;SDS011;26257;49.442;8.422;2023-05-10T15:03:54;1.05;;;0.50;;
24044;SDS011;26257;49.442;8.422;2023-05-10T15:06:23;3.45;;;0.60;;
24044;SDS011;26257;49.442;8.422;2023-05-10T15:08:50;2.15;;;0.50;;
24044;SDS011;26257;49.442;8.422;2023-05-10T15:11:15;1.45;;;0.50;;
24044;SDS011;26257;49.442;8.422;2023-05-10T15:13:41;3.17;;;0.90;;
24044;SDS011;26257;49.442;8.422;2023-05-10T15:16:06;1.92;;;0.70;;
24044;SDS011;26257;49.442;8.422;2023-05-10T15:18:31;1.25;;;0.60;;
24044;SDS011;26257;49.442;8.422;2023-05-10T15:20:57;2.25;;;0.65;;
24044;SDS011;26257;49.442;8.422;2023-05-10T15:23:22;1.90;;;0.60;;
24044;SDS011;26257;49.442;8.422;2023-05-10T15:25:48;2.10;;;0.45;;
24044;SDS011;26257;49.442;8.422;2023-05-10T15:28:15;2.88;;;0.50;;
24044;SDS011;26257;49.442;8.422;2023-05-10T15:30:40;1.90;;;0.80;;
24044;SDS011;26257;49.442;8.422;2023-05-10T15:33:06;1.65;;;0.70;;
24044;SDS011;26257;49.442;8.422;2023-05-10T15:35:32;1.48;;;0.80;;
24044;SDS011;26257;49.442;8.422;2023-05-10T15:38:00;1.02;;;0.47;;
24044;SDS011;26257;49.442;8.422;2023-05-10T15:40:26;1.88;;;0.70;;
24044;SDS011;26257;49.442;8.422;2023-05-10T15:42:51;2.95;;;0.80;;
24044;SDS011;26257;49.442;8.422;2023-05-10T15:45:16;1.83;;;0.63;;
24044;SDS011;26257;49.442;8.422;2023-05-10T15:47:42;3.53;;;0.63;;
24044;SDS011;26257;49.442;8.422;2023-05-10T15:50:09;1.20;;;0.47;;
24044;SDS011;26257;49.442;8.422;2023-05-10T15:52:35;2.78;;;0.80;;
24044;SDS011;26257;49.442;8.422;2023-05-10T15:55:01;1.00;;;0.50;;
24044;SDS011;26257;49.442;8.422;2023-05-10T15:57:27;1.15;;;0.50;;
24044;SDS011;26257;49.442;8.422;2023-05-10T15:59:52;1.20;;;0.55;;
24044;SDS011;26257;49.442;8.422;2023-05-10T16:02:18;1.77;;;0.60;;